»·PEaware :: N982CA KBFL-KSBD

N982CA :: KBFL-KSBD

FLIGHT INFORMATION

Flight Status: Arrived
Operator: Privately registered:
United States
More flights under this callsign
Pilot: Peter E. (15639)
Aircraft: CESSNA 172 SKYHAWK
(C172)
More flights by this aircraft type
Origin: KBFL Meadows
United States
Destination: KSBD San Bernardino Intl
United States
More flights between these airports :: More routes between these airports
Route: +
File this flight plan on PilotEdge
Remarks:
Altitude:
(Current/Filed)
9,500ft
Speed:
(Current/Filed)
0kts
Departed: 05-Oct-17 09:13 AM
Arrived: 05-Oct-17 10:20 AM
Distance/Time
Traveled:
121nm/1:07
Distance/Time
To Go:
Arrived

Flight Plot

Page will automatically refresh every two minutes.


Map Options




Map Legend


Flown Route
Filed Route
Departure Airport
Arrival Airport
Navaid (VOR, NDB)
Fix

Horizontal Profiles

Position Reports

Time Latitude Longitude Heading Altitude Ground
Speed
05-Oct-17 09:07 35.435710 -119.052041 179 498ft 0kts
05-Oct-17 09:08 35.435705 -119.052041 179 498ft 0kts
05-Oct-17 09:09 35.435197 -119.053694 226 498ft 0kts
05-Oct-17 09:10 35.434388 -119.054539 181 498ft 11kts
05-Oct-17 09:11 35.432361 -119.052205 134 498ft 13kts
05-Oct-17 09:12 35.429499 -119.048759 135 498ft 16kts
05-Oct-17 09:13 35.426310 -119.044833 134 498ft 14kts
05-Oct-17 09:14 35.425766 -119.044692 229 498ft 0kts
05-Oct-17 09:15 35.425766 -119.044692 229 498ft 0kts
05-Oct-17 09:16 35.425588 -119.044944 232 498ft 6kts
05-Oct-17 09:17 35.432108 -119.053961 319 783ft 60kts
05-Oct-17 09:18 35.437643 -119.072414 220 1563ft 74kts
05-Oct-17 09:19 35.419736 -119.063412 150 2361ft 79kts
05-Oct-17 09:20 35.402101 -119.047126 136 3153ft 81kts
05-Oct-17 09:21 35.384246 -119.029170 137 3909ft 85kts
05-Oct-17 09:22 35.366758 -119.008355 134 4612ft 89kts
05-Oct-17 09:23 35.349692 -118.987530 134 5267ft 91kts
05-Oct-17 09:24 35.333198 -118.963640 127 5926ft 93kts
05-Oct-17 09:25 35.317011 -118.938732 123 6548ft 94kts
05-Oct-17 09:26 35.300930 -118.912840 127 7142ft 96kts
05-Oct-17 09:27 35.285045 -118.885956 123 7710ft 98kts
05-Oct-17 09:28 35.268352 -118.859072 128 8262ft 100kts
05-Oct-17 09:29 35.251963 -118.830976 130 8791ft 102kts
05-Oct-17 09:30 35.232509 -118.805561 138 9299ft 103kts
05-Oct-17 09:31 35.209645 -118.780837 141 9448ft 120kts
05-Oct-17 09:32 35.186148 -118.755570 142 9439ft 123kts
05-Oct-17 09:33 35.160714 -118.728635 137 9471ft 121kts
05-Oct-17 09:34 35.136235 -118.700361 139 9525ft 119kts
05-Oct-17 09:35 35.112363 -118.672039 135 9563ft 121kts
05-Oct-17 09:36 35.088947 -118.641993 135 9571ft 122kts
05-Oct-17 09:37 35.065293 -118.611727 135 9570ft 124kts
05-Oct-17 09:38 35.041441 -118.581285 135 9571ft 124kts
05-Oct-17 09:39 35.017583 -118.550859 135 9571ft 124kts
05-Oct-17 09:40 34.993681 -118.520421 135 9569ft 124kts
05-Oct-17 09:41 34.969612 -118.489816 136 9563ft 125kts
05-Oct-17 09:42 34.945539 -118.459246 136 9555ft 125kts
05-Oct-17 09:43 34.921236 -118.428412 136 9544ft 126kts
05-Oct-17 09:44 34.897116 -118.397879 137 9530ft 126kts
05-Oct-17 09:45 34.873008 -118.367611 137 9514ft 126kts
05-Oct-17 09:46 34.849291 -118.337847 137 9501ft 126kts
05-Oct-17 09:47 34.825167 -118.307594 137 9495ft 125kts
05-Oct-17 09:48 34.801099 -118.277266 137 9496ft 124kts
05-Oct-17 09:49 34.777200 -118.247108 138 9497ft 123kts
05-Oct-17 09:50 34.753420 -118.217103 138 9497ft 123kts
05-Oct-17 09:51 34.729809 -118.187329 139 9497ft 122kts
05-Oct-17 09:52 34.706300 -118.157738 140 9496ft 121kts
05-Oct-17 09:53 34.683076 -118.128573 140 9496ft 120kts
05-Oct-17 09:54 34.659169 -118.100854 144 9497ft 118kts
05-Oct-17 09:55 34.635296 -118.073700 134 9496ft 119kts
05-Oct-17 09:56 34.619785 -118.037489 125 9503ft 121kts
05-Oct-17 09:57 34.601171 -118.003830 132 9497ft 120kts
05-Oct-17 09:58 34.582248 -117.970357 128 9496ft 120kts
05-Oct-17 09:59 34.562608 -117.937841 131 9506ft 119kts
05-Oct-17 10:00 34.545190 -117.903114 130 9501ft 120kts
05-Oct-17 10:01 34.526591 -117.869098 129 9498ft 121kts
05-Oct-17 10:02 34.507922 -117.834881 128 9490ft 122kts
05-Oct-17 10:03 34.489094 -117.800303 127 9487ft 123kts
05-Oct-17 10:04 34.470091 -117.765321 126 9487ft 124kts
05-Oct-17 10:05 34.451059 -117.730245 126 9489ft 125kts
05-Oct-17 10:06 34.431889 -117.694902 125 9494ft 125kts
05-Oct-17 10:07 34.412690 -117.659518 125 9501ft 126kts
05-Oct-17 10:08 34.393422 -117.624026 125 9508ft 126kts
05-Oct-17 10:09 34.374138 -117.588553 125 9505ft 126kts
05-Oct-17 10:10 34.354687 -117.552851 125 9494ft 127kts
05-Oct-17 10:11 34.334995 -117.517442 128 9426ft 125kts
05-Oct-17 10:12 34.310537 -117.487600 142 9014ft 126kts
05-Oct-17 10:13 34.284103 -117.458957 138 8469ft 130kts
05-Oct-17 10:14 34.258531 -117.428357 134 7952ft 128kts
05-Oct-17 10:15 34.234659 -117.395880 129 7360ft 132kts
05-Oct-17 10:16 34.213255 -117.361065 124 6731ft 127kts
05-Oct-17 10:17 34.194583 -117.325681 119 5937ft 125kts
05-Oct-17 10:18 34.178189 -117.289653 118 5153ft 121kts
05-Oct-17 10:19 34.161448 -117.254814 124 4379ft 119kts
05-Oct-17 10:20 34.138135 -117.267578 237 3541ft 112kts
05-Oct-17 10:21 34.115897 -117.289949 183 2831ft 108kts
05-Oct-17 10:22 34.090596 -117.280934 149 2338ft 85kts
05-Oct-17 10:23 34.088843 -117.256308 70 1515ft 84kts
05-Oct-17 10:24 34.094750 -117.236737 71 1135ft 23kts
05-Oct-17 10:25 34.095940 -117.236131 330 1135ft 3kts
05-Oct-17 10:26 34.096955 -117.235507 70 1135ft 10kts
05-Oct-17 10:27 34.098197 -117.231301 71 1135ft 14kts
05-Oct-17 10:28 34.099750 -117.226686 36 1135ft 13kts
05-Oct-17 10:29 34.101914 -117.225005 351 1135ft 7kts
05-Oct-17 10:30 34.102141 -117.224760 69 1135ft 0kts

Navigation Log

Ident Type
1. KBFL Airport
2. KSBD Airport